createdAt,value
2022-09-10T00:01:11.898Z,35.20
2022-09-10T00:04:15.531Z,34.50
2022-09-10T00:07:18.800Z,34.00
2022-09-10T00:10:20.861Z,34.30
2022-09-10T00:13:22.853Z,34.60
2022-09-10T00:16:25.557Z,34.20
2022-09-10T00:19:28.579Z,34.80
2022-09-10T00:22:30.358Z,33.30
2022-09-10T00:25:32.401Z,34.00
2022-09-10T00:28:34.168Z,34.30
2022-09-10T00:31:36.500Z,33.70
2022-09-10T00:34:38.308Z,32.90
2022-09-10T00:37:40.651Z,33.50
2022-09-10T00:40:42.413Z,34.00
2022-09-10T00:43:54.532Z,33.70
2022-09-10T00:46:56.317Z,36.70
2022-09-10T00:50:06.710Z,36.50
2022-09-10T00:53:12.841Z,37.80
2022-09-10T00:56:14.516Z,36.00
2022-09-10T00:59:18.968Z,40.60
2022-09-10T01:02:21.799Z,40.90
2022-09-10T01:05:24.428Z,39.40
2022-09-10T01:08:27.545Z,38.90
2022-09-10T01:11:36.014Z,40.10
2022-09-10T01:14:48.856Z,40.20
2022-09-10T01:18:07.091Z,39.30
2022-09-10T01:21:22.193Z,39.60
2022-09-10T01:24:52.450Z,40.80
2022-09-10T01:27:55.585Z,41.00
2022-09-10T01:31:05.671Z,39.10
2022-09-10T01:34:14.084Z,39.80
2022-09-10T01:37:25.890Z,36.70
2022-09-10T01:40:31.092Z,37.90
2022-09-10T01:43:33.914Z,41.00
2022-09-10T01:46:49.787Z,42.80
2022-09-10T01:50:21.048Z,42.60
2022-09-10T01:53:33.458Z,41.40
2022-09-10T01:57:07.365Z,39.90
2022-09-10T02:00:15.372Z,42.30
2022-09-10T02:03:21.222Z,42.30
2022-09-10T02:06:28.007Z,45.70
2022-09-10T02:09:29.660Z,45.70
2022-09-10T02:12:31.383Z,46.90
2022-09-10T02:15:33.413Z,43.90
2022-09-10T02:18:35.251Z,42.20
2022-09-10T02:21:37.434Z,46.70
2022-09-10T02:24:39.136Z,48.30
2022-09-10T02:27:43.665Z,47.80
2022-09-10T02:30:45.312Z,47.10
2022-09-10T02:33:47.353Z,45.40
2022-09-10T02:36:49.614Z,47.10
2022-09-10T02:39:51.410Z,46.90
2022-09-10T02:42:53.126Z,47.70
2022-09-10T02:45:57.174Z,47.40
2022-09-10T02:48:59.191Z,47.10
2022-09-10T02:52:02.933Z,45.60
2022-09-10T02:55:04.929Z,45.20
2022-09-10T02:58:07.179Z,46.50
2022-09-10T03:01:19.376Z,43.60
2022-09-10T03:04:21.105Z,46.90
2022-09-10T03:07:22.826Z,48.40
2022-09-10T03:10:24.562Z,44.10
2022-09-10T03:13:30.291Z,45.00
2022-09-10T03:16:32.088Z,44.50
2022-09-10T03:19:33.885Z,45.40
2022-09-10T03:22:35.576Z,48.00
2022-09-10T03:25:37.209Z,44.60
2022-09-10T03:28:39.144Z,46.90
2022-09-10T03:31:41.205Z,47.10
2022-09-10T03:34:44.355Z,46.80
2022-09-10T03:37:46.098Z,47.20
2022-09-10T03:40:47.919Z,49.20
2022-09-10T03:43:49.614Z,46.40
2022-09-10T03:46:52.146Z,44.40
2022-09-10T03:49:53.830Z,46.30
2022-09-10T03:52:56.414Z,47.50
2022-09-10T03:55:58.546Z,48.60
2022-09-10T03:59:00.658Z,47.60
2022-09-10T04:02:03.248Z,48.40
2022-09-10T04:05:07.053Z,47.50
2022-09-10T04:08:10.010Z,46.60
2022-09-10T04:11:11.782Z,46.00
2022-09-10T04:14:13.413Z,45.60
2022-09-10T04:17:15.178Z,46.50
2022-09-10T04:20:17.853Z,45.40
2022-09-10T04:23:19.602Z,43.90
2022-09-10T04:26:21.322Z,44.30
2022-09-10T04:29:23.421Z,42.20
2022-09-10T04:32:25.053Z,40.40
2022-09-10T04:35:26.839Z,42.80
2022-09-10T04:38:30.469Z,40.10
2022-09-10T04:41:32.391Z,39.90
2022-09-10T04:44:34.117Z,37.70
2022-09-10T04:47:36.262Z,38.60
2022-09-10T04:50:50.152Z,36.50
2022-09-10T04:54:01.832Z,35.40
2022-09-10T04:57:06.935Z,33.80
2022-09-10T05:00:09.213Z,33.10
2022-09-10T05:03:11.201Z,34.00
2022-09-10T05:06:12.836Z,32.50
2022-09-10T05:09:14.506Z,32.90
2022-09-10T05:12:16.594Z,31.80
2022-09-10T05:15:18.265Z,32.30
2022-09-10T05:18:19.961Z,30.70
2022-09-10T05:21:22.468Z,29.30
2022-09-10T05:24:24.228Z,28.80
2022-09-10T05:27:25.956Z,27.00
2022-09-10T05:30:33.026Z,28.30
2022-09-10T05:33:35.124Z,25.30
2022-09-10T05:36:36.835Z,25.70
2022-09-10T05:39:38.493Z,25.20
2022-09-10T05:42:40.138Z,25.40
2022-09-10T05:45:41.805Z,24.60
2022-09-10T05:48:43.885Z,24.00
2022-09-10T05:51:45.833Z,22.80
2022-09-10T05:54:47.421Z,22.80
2022-09-10T05:57:49.232Z,23.30
2022-09-10T06:00:51.650Z,21.10
2022-09-10T06:03:53.389Z,24.20
2022-09-10T06:06:55.127Z,22.90
2022-09-10T06:09:57.830Z,21.50
2022-09-10T06:12:59.535Z,21.60
2022-09-10T06:16:01.346Z,20.10
2022-09-10T06:19:03.446Z,19.30
2022-09-10T06:22:05.333Z,17.90
2022-09-10T06:25:07.375Z,18.00
2022-09-10T06:28:09.725Z,16.50
2022-09-10T06:31:17.043Z,15.60
2022-09-10T06:34:19.114Z,16.50
2022-09-10T06:37:20.869Z,16.20
2022-09-10T06:40:22.566Z,17.00
2022-09-10T06:43:26.067Z,17.90
2022-09-10T06:49:49.549Z,17.20
2022-09-10T06:52:51.717Z,22.80
2022-09-10T06:55:53.805Z,19.20
2022-09-10T06:59:01.494Z,16.20
2022-09-10T07:02:04.158Z,15.50
2022-09-10T07:05:06.249Z,16.00
2022-09-10T07:08:08.221Z,14.90
2022-09-10T07:11:14.892Z,13.70
2022-09-10T07:14:18.100Z,13.70
2022-09-10T07:17:21.229Z,13.10
2022-09-10T07:20:23.510Z,12.80
2022-09-10T07:23:25.344Z,13.10
2022-09-10T07:26:27.874Z,11.70
2022-09-10T07:29:31.379Z,11.60
2022-09-10T07:32:33.684Z,11.30
2022-09-10T07:35:36.657Z,11.20
2022-09-10T07:38:39.546Z,10.70
2022-09-10T07:41:41.310Z,9.60
2022-09-10T07:44:42.939Z,8.50
2022-09-10T07:47:44.661Z,9.20
2022-09-10T07:50:46.350Z,8.80
2022-09-10T07:53:53.536Z,9.20
2022-09-10T07:56:55.932Z,9.50
2022-09-10T07:59:58.332Z,10.30
2022-09-10T08:03:00.634Z,11.50
2022-09-10T08:06:02.828Z,11.20
2022-09-10T08:09:07.187Z,11.00
2022-09-10T08:12:09.483Z,11.10
2022-09-10T08:15:11.389Z,10.70
2022-09-10T08:18:13.809Z,10.70
2022-09-10T08:21:16.954Z,10.30
2022-09-10T08:24:18.784Z,10.20
2022-09-10T08:27:20.498Z,10.90
2022-09-10T08:30:22.218Z,10.90
2022-09-10T08:33:25.005Z,11.00
2022-09-10T08:36:26.838Z,11.00
2022-09-10T08:39:28.602Z,10.30
2022-09-10T08:42:50.212Z,10.80
2022-09-10T08:45:52.245Z,10.30
2022-09-10T08:49:14.536Z,10.00
2022-09-10T08:52:34.999Z,10.20
2022-09-10T08:55:38.180Z,9.70
2022-09-10T08:58:49.039Z,10.60
2022-09-10T09:02:04.649Z,10.30
2022-09-10T09:05:15.758Z,9.70
2022-09-10T09:08:21.919Z,10.20
2022-09-10T09:11:39.555Z,11.50
2022-09-10T09:15:09.964Z,11.30
2022-09-10T09:18:28.175Z,25.10
2022-09-10T09:21:42.062Z,14.00
2022-09-10T09:24:57.899Z,14.00
2022-09-10T09:27:59.730Z,16.70
2022-09-10T09:31:14.642Z,38.30
2022-09-10T09:34:22.737Z,20.70
2022-09-10T09:37:30.186Z,14.00
2022-09-10T09:40:37.205Z,13.70
2022-09-10T09:44:03.745Z,14.60
2022-09-10T09:47:05.385Z,13.30
2022-09-10T09:50:10.949Z,14.60
2022-09-10T09:53:27.933Z,16.70
2022-09-10T09:56:35.968Z,13.40
2022-09-10T09:59:37.670Z,13.50
2022-09-10T10:02:39.647Z,13.60
2022-09-10T10:05:42.495Z,12.50
2022-09-10T10:09:30.789Z,10.90
2022-09-10T10:12:33.255Z,10.70
2022-09-10T10:15:41.922Z,11.30
2022-09-10T10:18:45.148Z,9.80
2022-09-10T10:21:47.472Z,10.30
2022-09-10T10:24:52.626Z,9.30
2022-09-10T10:27:54.422Z,10.10
2022-09-10T10:30:59.575Z,9.20
2022-09-10T10:34:28.540Z,9.90
2022-09-10T10:37:30.766Z,9.70
2022-09-10T10:40:35.196Z,9.00
2022-09-10T10:44:06.386Z,7.90
2022-09-10T10:47:27.420Z,7.00
2022-09-10T10:50:52.881Z,6.60
2022-09-10T10:54:16.747Z,6.00
2022-09-10T10:57:40.414Z,6.00
2022-09-10T11:01:35.092Z,5.50
2022-09-10T11:04:51.687Z,4.90
2022-09-10T11:07:54.698Z,5.90
2022-09-10T11:11:01.317Z,5.80
2022-09-10T11:14:38.786Z,5.60
2022-09-10T11:17:53.501Z,6.10
2022-09-10T11:21:11.728Z,6.60
2022-09-10T11:24:37.998Z,6.10
2022-09-10T11:27:46.751Z,5.60
2022-09-10T11:30:54.699Z,5.70
2022-09-10T11:34:11.152Z,4.80
2022-09-10T11:37:20.294Z,4.80
2022-09-10T11:40:52.309Z,5.10
2022-09-10T11:44:18.022Z,4.30
2022-09-10T11:47:26.958Z,4.40
2022-09-10T11:50:48.780Z,4.50
2022-09-10T11:53:50.882Z,4.30
2022-09-10T11:57:04.248Z,4.50
2022-09-10T12:00:09.967Z,4.00
2022-09-10T12:03:28.844Z,3.90
2022-09-10T12:06:33.943Z,4.40
2022-09-10T12:09:58.588Z,4.40
2022-09-10T12:13:00.951Z,4.40
2022-09-10T12:16:29.533Z,4.50
2022-09-10T12:19:38.096Z,4.40
2022-09-10T12:22:40.532Z,4.40
2022-09-10T12:25:42.295Z,4.20
2022-09-10T12:28:53.191Z,4.30
2022-09-10T12:32:10.514Z,4.30
2022-09-10T12:35:35.395Z,4.80
2022-09-10T12:39:08.947Z,5.00
2022-09-10T12:42:31.887Z,4.70
2022-09-10T12:46:12.764Z,4.10
2022-09-10T12:49:16.956Z,4.50
2022-09-10T12:52:26.001Z,4.80
2022-09-10T12:56:15.805Z,5.10
2022-09-10T12:59:42.731Z,5.40
2022-09-10T13:03:01.395Z,6.10
2022-09-10T13:06:04.625Z,3.90
2022-09-10T13:09:18.053Z,4.50
2022-09-10T13:12:21.141Z,5.00
2022-09-10T13:15:37.202Z,5.00
2022-09-10T13:18:39.089Z,4.10
2022-09-10T13:21:40.825Z,4.30
2022-09-10T13:25:00.848Z,4.00
2022-09-10T13:28:16.856Z,3.90
2022-09-10T13:31:23.411Z,4.50
2022-09-10T13:35:01.649Z,4.70
2022-09-10T13:38:09.402Z,4.00
2022-09-10T13:41:38.732Z,4.20
2022-09-10T13:44:59.266Z,4.20
2022-09-10T13:48:06.343Z,4.20
2022-09-10T13:51:19.849Z,4.80
2022-09-10T13:54:43.585Z,4.40
2022-09-10T13:57:48.945Z,4.10
2022-09-10T14:00:56.283Z,4.10
2022-09-10T14:03:58.312Z,3.90
2022-09-10T14:07:13.155Z,3.70
2022-09-10T14:10:15.228Z,3.90
2022-09-10T14:13:22.530Z,3.90
2022-09-10T14:16:44.309Z,3.90
2022-09-10T14:19:47.882Z,3.70
2022-09-10T14:23:00.025Z,4.00
2022-09-10T14:26:14.928Z,3.90
2022-09-10T14:29:24.683Z,4.30
2022-09-10T14:32:34.410Z,4.10
2022-09-10T14:35:44.136Z,5.50
2022-09-10T14:38:58.684Z,5.30
2022-09-10T14:42:24.022Z,4.30
2022-09-10T14:45:49.891Z,4.40
2022-09-10T14:49:01.624Z,4.50
2022-09-10T14:52:04.116Z,4.80
2022-09-10T14:55:06.376Z,4.70
2022-09-10T14:58:08.036Z,4.50
2022-09-10T15:01:09.739Z,4.10
2022-09-10T15:04:16.821Z,4.20
2022-09-10T15:07:19.048Z,4.10
2022-09-10T15:10:20.770Z,3.90
2022-09-10T15:13:22.427Z,4.10
2022-09-10T15:16:24.107Z,4.40
2022-09-10T15:19:25.956Z,4.30
2022-09-10T15:22:30.488Z,4.20
2022-09-10T15:25:39.563Z,4.10
2022-09-10T15:28:41.920Z,4.10
2022-09-10T15:31:44.284Z,4.40
2022-09-10T15:34:46.002Z,4.30
2022-09-10T15:37:47.756Z,4.00
2022-09-10T15:40:50.612Z,4.50
2022-09-10T15:43:52.373Z,4.20
2022-09-10T15:46:54.046Z,4.80
2022-09-10T15:49:56.764Z,4.50
2022-09-10T15:52:59.291Z,4.30
2022-09-10T15:56:02.886Z,4.60
2022-09-10T15:59:08.778Z,5.00
2022-09-10T16:02:13.199Z,5.10
2022-09-10T16:05:16.420Z,5.30
2022-09-10T16:08:18.108Z,4.90
2022-09-10T16:11:20.350Z,5.50
2022-09-10T16:14:23.541Z,4.80
2022-09-10T16:17:25.410Z,5.00
2022-09-10T16:20:27.515Z,5.30
2022-09-10T16:23:29.188Z,4.90
2022-09-10T16:26:36.841Z,5.50
2022-09-10T16:29:40.189Z,5.10
2022-09-10T16:32:41.831Z,7.20
2022-09-10T16:35:43.469Z,8.50
2022-09-10T16:38:45.468Z,7.30
2022-09-10T16:41:48.785Z,7.70
2022-09-10T16:44:50.493Z,6.90
2022-09-10T16:47:55.392Z,7.00
2022-09-10T16:51:12.994Z,6.50
2022-09-10T16:54:14.945Z,8.20
2022-09-10T16:57:16.595Z,8.30
2022-09-10T17:00:19.103Z,7.60
2022-09-10T17:03:23.924Z,7.60
2022-09-10T17:06:27.654Z,7.70
2022-09-10T17:09:29.393Z,7.20
2022-09-10T17:12:31.002Z,6.70
2022-09-10T17:15:32.803Z,7.50
2022-09-10T17:18:34.479Z,6.70
2022-09-10T17:21:38.142Z,7.00
2022-09-10T17:24:39.765Z,7.30
2022-09-10T17:27:41.492Z,6.70
2022-09-10T17:30:43.190Z,7.60
2022-09-10T17:33:44.980Z,9.20
2022-09-10T17:36:47.794Z,9.40
2022-09-10T17:39:51.630Z,7.80
2022-09-10T17:42:53.921Z,8.40
2022-09-10T17:45:55.962Z,8.40
2022-09-10T17:48:59.049Z,8.20
2022-09-10T17:52:00.879Z,9.70
2022-09-10T17:55:02.653Z,12.60
2022-09-10T17:58:04.318Z,12.90
2022-09-10T18:01:09.002Z,11.90
2022-09-10T18:04:15.750Z,11.20
2022-09-10T18:07:18.355Z,11.40
2022-09-10T18:10:20.557Z,9.90
2022-09-10T18:13:23.192Z,10.00
2022-09-10T18:16:27.595Z,9.70
2022-09-10T18:19:29.328Z,8.80
2022-09-10T18:22:31.049Z,15.00
2022-09-10T18:25:33.186Z,12.20
2022-09-10T18:28:34.838Z,12.60
2022-09-10T18:31:42.255Z,17.50
2022-09-10T19:14:31.973Z,18.80
2022-09-10T19:17:38.814Z,19.60
2022-09-10T19:20:40.749Z,18.90
2022-09-10T19:23:42.515Z,19.20
2022-09-10T19:26:44.804Z,20.10
2022-09-10T19:29:47.387Z,21.30
2022-09-10T19:32:49.190Z,12.60
2022-09-10T19:35:55.928Z,9.20
2022-09-10T19:38:59.701Z,9.90
2022-09-10T19:42:01.322Z,9.00
2022-09-10T19:45:05.915Z,7.80
2022-09-10T19:48:11.299Z,5.50
2022-09-10T19:51:15.402Z,5.60
2022-09-10T19:54:17.099Z,4.70
2022-09-10T19:57:18.900Z,4.50
2022-09-10T20:00:45.395Z,5.00
2022-09-10T20:03:44.869Z,4.90
2022-09-10T20:06:47.731Z,4.80
2022-09-10T20:09:49.744Z,5.20
2022-09-10T20:12:52.239Z,5.50
2022-09-10T20:15:54.550Z,5.30
2022-09-10T20:18:56.474Z,5.40
2022-09-10T20:21:58.153Z,5.90
2022-09-10T20:25:00.013Z,5.70
2022-09-10T20:28:01.991Z,5.80
2022-09-10T20:31:09.013Z,5.80
2022-09-10T20:34:12.864Z,5.80
2022-09-10T20:37:14.488Z,6.40
2022-09-10T20:40:16.116Z,6.10
2022-09-10T20:43:17.889Z,6.30
2022-09-10T20:46:22.412Z,6.50
2022-09-10T20:49:24.390Z,6.50
2022-09-10T20:52:26.177Z,7.10
2022-09-10T20:55:27.965Z,7.40
2022-09-10T20:58:29.590Z,7.50
2022-09-10T21:01:31.297Z,7.80
2022-09-10T21:04:33.213Z,8.10
2022-09-10T21:07:35.046Z,8.10
2022-09-10T21:10:37.676Z,7.80
2022-09-10T21:13:49.856Z,8.00
2022-09-10T21:16:51.890Z,8.10
2022-09-10T21:19:53.813Z,7.60
2022-09-10T21:22:56.510Z,8.80
2022-09-10T21:25:58.258Z,9.10
2022-09-10T21:29:03.612Z,8.60
2022-09-10T21:32:05.356Z,8.80
2022-09-10T21:35:07.485Z,9.50
2022-09-10T21:38:09.168Z,9.40
2022-09-10T21:41:12.604Z,10.20
2022-09-10T21:44:16.737Z,11.20
2022-09-10T21:47:18.482Z,12.80
2022-09-10T21:50:20.206Z,11.70
2022-09-10T21:53:22.674Z,11.20
2022-09-10T21:56:26.292Z,11.50
2022-09-10T21:59:27.929Z,10.80
2022-09-10T22:02:31.678Z,10.50
2022-09-10T22:05:33.504Z,11.30
2022-09-10T22:08:36.349Z,11.90
2022-09-10T22:11:41.899Z,12.30
2022-09-10T22:14:43.586Z,12.80
2022-09-10T22:17:45.330Z,14.00
2022-09-10T22:20:47.095Z,14.80
2022-09-10T22:23:51.554Z,15.40
2022-09-10T22:26:54.788Z,16.70
2022-09-10T22:29:56.910Z,17.10
2022-09-10T22:32:58.569Z,18.60
2022-09-10T22:36:13.524Z,19.00
2022-09-10T22:39:17.857Z,20.50
2022-09-10T22:42:21.165Z,21.70
2022-09-10T22:45:24.060Z,23.70
2022-09-10T22:48:25.700Z,25.20
2022-09-10T22:51:29.610Z,30.30
2022-09-10T22:54:31.460Z,33.30
2022-09-10T22:57:33.132Z,37.10
2022-09-10T23:00:36.105Z,40.70
2022-09-10T23:03:38.006Z,30.90
2022-09-10T23:07:00.933Z,19.60
2022-09-10T23:10:02.737Z,14.00
2022-09-10T23:13:05.268Z,13.00
2022-09-10T23:16:11.428Z,13.10
2022-09-10T23:19:15.677Z,13.20
2022-09-10T23:22:17.638Z,13.40
2022-09-10T23:25:19.722Z,12.80
2022-09-10T23:28:26.704Z,12.30
2022-09-10T23:31:29.655Z,12.50
2022-09-10T23:34:31.467Z,12.60
2022-09-10T23:37:33.424Z,11.60
2022-09-10T23:40:35.128Z,12.40
2022-09-10T23:43:36.947Z,12.00
2022-09-10T23:46:38.899Z,13.00
2022-09-10T23:49:40.665Z,12.40
2022-09-10T23:52:42.318Z,12.20
2022-09-10T23:55:44.258Z,12.10
2022-09-10T23:58:46.418Z,12.10
